VLG5FA EGKK-LEMG
Flight info
| Callsign | VLG5FA |
|---|---|
| Flight time | 2h 26m |
| Altitude | 35000 |
| Route | NOVMA L620 SAM M195 MARUK N621 LELNA DCT NOVAN DCT DELOG DCT CRISA DCT VULPE |
| Aircraft | A320/M-SDE3FGHIRWY/LB1 |
Departure
| Time | 2026-04-16 12:18 |
|---|---|
| Airport | London Gatwick Airport (EGKK) |
Arrival
| Time | 2026-04-16 14:44 |
|---|---|
| Airport | Málaga-Costa del Sol Airport (LEMG) |
| Time | Latitude | Longitude | Altitude | Speed | Heading |
|---|---|---|---|---|---|
| 2026-04-16 11:40 | 51.15540 | -0.16535 | 204 ft | 0 kts | 347° |
| 2026-04-16 12:02 | 51.15539 | -0.16535 | 204 ft | 0 kts | 347° |
| 2026-04-16 12:05 | 51.15527 | -0.16530 | 204 ft | 4 kts | 347° |
| 2026-04-16 12:05 | 51.15501 | -0.16522 | 204 ft | 4 kts | 358° |
| 2026-04-16 12:06 | 51.15476 | -0.16525 | 204 ft | 4 kts | 348° |
| 2026-04-16 12:06 | 51.15449 | -0.16516 | 209 ft | 4 kts | 347° |
| 2026-04-16 12:06 | 51.15437 | -0.16511 | 204 ft | 0 kts | 347° |
| 2026-04-16 12:11 | 51.15440 | -0.16513 | 204 ft | 1 kts | 345° |
| 2026-04-16 12:12 | 51.15456 | -0.16532 | 209 ft | 5 kts | 313° |
| 2026-04-16 12:12 | 51.15457 | -0.16599 | 204 ft | 7 kts | 258° |
| 2026-04-16 12:12 | 51.15446 | -0.16677 | 209 ft | 8 kts | 256° |
| 2026-04-16 12:12 | 51.15401 | -0.16712 | 204 ft | 9 kts | 173° |
| 2026-04-16 12:13 | 51.15335 | -0.16684 | 208 ft | 10 kts | 160° |
| 2026-04-16 12:13 | 51.15282 | -0.16664 | 211 ft | 7 kts | 168° |
| 2026-04-16 12:13 | 51.15266 | -0.16658 | 207 ft | 0 kts | 168° |
| 2026-04-16 12:16 | 51.15265 | -0.16658 | 207 ft | 1 kts | 168° |
| 2026-04-16 12:16 | 51.15250 | -0.16653 | 204 ft | 3 kts | 168° |
| 2026-04-16 12:16 | 51.15217 | -0.16642 | 207 ft | 7 kts | 168° |
| 2026-04-16 12:17 | 51.15157 | -0.16643 | 203 ft | 10 kts | 205° |
| 2026-04-16 12:17 | 51.15127 | -0.16763 | 211 ft | 14 kts | 258° |
| 2026-04-16 12:17 | 51.15103 | -0.16944 | 203 ft | 28 kts | 261° |
| 2026-04-16 12:17 | 51.15013 | -0.17585 | 215 ft | 88 kts | 257° |
| 2026-04-16 12:18 | 51.14842 | -0.18806 | 202 ft | 135 kts | 257° |
| 2026-04-16 12:18 | 51.14621 | -0.20377 | 548 ft | 146 kts | 258° |
| 2026-04-16 12:18 | 51.14403 | -0.21955 | 1127 ft | 150 kts | 259° |
| 2026-04-16 12:18 | 51.14141 | -0.23666 | 1469 ft | 167 kts | 253° |
| 2026-04-16 12:19 | 51.13836 | -0.25500 | 1992 ft | 174 kts | 253° |
| 2026-04-16 12:19 | 51.13534 | -0.27446 | 2371 ft | 190 kts | 255° |
| 2026-04-16 12:19 | 51.13261 | -0.29535 | 2943 ft | 197 kts | 257° |
| 2026-04-16 12:19 | 51.12982 | -0.31735 | 3546 ft | 209 kts | 257° |
| 2026-04-16 12:20 | 51.12681 | -0.34072 | 4078 ft | 223 kts | 257° |
| 2026-04-16 12:20 | 51.12350 | -0.36581 | 4618 ft | 240 kts | 257° |
| 2026-04-16 12:20 | 51.11994 | -0.39242 | 5139 ft | 254 kts | 257° |
| 2026-04-16 12:20 | 51.11605 | -0.42067 | 5679 ft | 269 kts | 255° |
| 2026-04-16 12:21 | 51.11004 | -0.44961 | 6228 ft | 282 kts | 250° |
| 2026-04-16 12:21 | 51.10544 | -0.46958 | 6623 ft | 289 kts | 250° |
| 2026-04-16 12:21 | 51.09824 | -0.49965 | 7190 ft | 297 kts | 249° |
| 2026-04-16 12:21 | 51.09063 | -0.53087 | 7772 ft | 301 kts | 249° |
| 2026-04-16 12:22 | 51.08311 | -0.56160 | 8335 ft | 304 kts | 249° |
| 2026-04-16 12:22 | 51.07543 | -0.59304 | 8935 ft | 306 kts | 249° |
| 2026-04-16 12:22 | 51.06776 | -0.62470 | 9542 ft | 308 kts | 249° |
| 2026-04-16 12:22 | 51.06002 | -0.65672 | 10149 ft | 311 kts | 249° |
| 2026-04-16 12:23 | 51.05227 | -0.68882 | 10710 ft | 312 kts | 249° |
| 2026-04-16 12:23 | 51.04449 | -0.72119 | 11277 ft | 315 kts | 249° |
| 2026-04-16 12:23 | 51.03684 | -0.75400 | 11851 ft | 318 kts | 253° |
| 2026-04-16 12:23 | 51.03188 | -0.78849 | 12435 ft | 321 kts | 258° |
| 2026-04-16 12:24 | 51.02721 | -0.82327 | 13038 ft | 323 kts | 258° |
| 2026-04-16 12:24 | 51.02247 | -0.85835 | 13648 ft | 326 kts | 258° |
| 2026-04-16 12:24 | 51.01766 | -0.89371 | 14229 ft | 329 kts | 258° |
| 2026-04-16 12:24 | 51.01279 | -0.92942 | 14786 ft | 332 kts | 258° |
| 2026-04-16 12:25 | 51.00789 | -0.96541 | 15338 ft | 334 kts | 257° |
| 2026-04-16 12:25 | 51.00296 | -1.00153 | 15933 ft | 336 kts | 257° |
| 2026-04-16 12:25 | 50.99798 | -1.03784 | 16518 ft | 337 kts | 257° |
| 2026-04-16 12:25 | 50.99297 | -1.07426 | 17114 ft | 339 kts | 257° |
| 2026-04-16 12:26 | 50.98793 | -1.11081 | 17723 ft | 340 kts | 257° |
| 2026-04-16 12:26 | 50.98284 | -1.14747 | 18328 ft | 340 kts | 257° |
| 2026-04-16 12:26 | 50.97772 | -1.18418 | 18874 ft | 342 kts | 257° |
| 2026-04-16 12:26 | 50.97255 | -1.22122 | 19348 ft | 345 kts | 257° |
| 2026-04-16 12:27 | 50.96734 | -1.25853 | 19833 ft | 348 kts | 257° |
| 2026-04-16 12:27 | 50.96097 | -1.29560 | 20324 ft | 350 kts | 249° |
| 2026-04-16 12:27 | 50.95009 | -1.33024 | 20837 ft | 353 kts | 239° |
| 2026-04-16 12:27 | 50.93486 | -1.36095 | 21301 ft | 358 kts | 228° |
| 2026-04-16 12:28 | 50.91561 | -1.38650 | 21686 ft | 366 kts | 217° |
| 2026-04-16 12:28 | 50.89421 | -1.40858 | 22084 ft | 369 kts | 217° |
| 2026-04-16 12:28 | 50.87260 | -1.43099 | 22485 ft | 373 kts | 217° |
| 2026-04-16 12:28 | 50.85085 | -1.45362 | 22873 ft | 376 kts | 217° |
| 2026-04-16 12:29 | 50.82895 | -1.47640 | 23279 ft | 378 kts | 217° |
| 2026-04-16 12:29 | 50.80685 | -1.49941 | 23585 ft | 384 kts | 217° |
| 2026-04-16 12:29 | 50.78423 | -1.52300 | 23584 ft | 395 kts | 217° |
| 2026-04-16 12:29 | 50.76093 | -1.54719 | 23591 ft | 407 kts | 217° |
| 2026-04-16 12:30 | 50.73696 | -1.57198 | 23593 ft | 417 kts | 217° |
| 2026-04-16 12:30 | 50.71242 | -1.59734 | 23592 ft | 426 kts | 217° |
| 2026-04-16 12:30 | 50.68746 | -1.62307 | 23593 ft | 430 kts | 217° |
| 2026-04-16 12:30 | 50.66237 | -1.64888 | 23595 ft | 431 kts | 217° |
| 2026-04-16 12:31 | 50.63726 | -1.67470 | 23600 ft | 431 kts | 217° |
| 2026-04-16 12:31 | 50.61209 | -1.70053 | 23569 ft | 432 kts | 217° |
| 2026-04-16 12:31 | 50.58691 | -1.72632 | 23576 ft | 432 kts | 217° |
| 2026-04-16 12:31 | 50.56169 | -1.75209 | 23576 ft | 432 kts | 217° |
| 2026-04-16 12:32 | 50.53645 | -1.77783 | 23577 ft | 432 kts | 217° |
| 2026-04-16 12:32 | 50.51126 | -1.80353 | 23576 ft | 432 kts | 217° |
| 2026-04-16 12:32 | 50.48605 | -1.82926 | 23582 ft | 432 kts | 217° |
| 2026-04-16 12:32 | 50.46086 | -1.85497 | 23586 ft | 432 kts | 217° |
| 2026-04-16 12:33 | 50.43567 | -1.88063 | 23589 ft | 431 kts | 217° |
| 2026-04-16 12:33 | 50.41048 | -1.90624 | 23708 ft | 433 kts | 217° |
| 2026-04-16 12:33 | 50.38511 | -1.93200 | 24000 ft | 435 kts | 217° |
| 2026-04-16 12:33 | 50.35965 | -1.95780 | 24285 ft | 437 kts | 217° |
| 2026-04-16 12:34 | 50.33412 | -1.98361 | 24583 ft | 438 kts | 217° |
| 2026-04-16 12:34 | 50.30847 | -2.00948 | 24875 ft | 439 kts | 217° |
| 2026-04-16 12:34 | 50.28278 | -2.03539 | 25172 ft | 440 kts | 217° |
| 2026-04-16 12:34 | 50.25566 | -2.05811 | 25588 ft | 444 kts | 207° |
| 2026-04-16 12:35 | 50.22626 | -2.07268 | 26195 ft | 445 kts | 198° |
| 2026-04-16 12:35 | 50.19558 | -2.07906 | 26824 ft | 445 kts | 191° |
| 2026-04-16 12:35 | 50.16490 | -2.08305 | 27438 ft | 439 kts | 191° |
| 2026-04-16 12:35 | 50.13468 | -2.08686 | 28090 ft | 433 kts | 191° |
| 2026-04-16 12:36 | 50.10486 | -2.09062 | 28757 ft | 427 kts | 191° |
| 2026-04-16 12:36 | 50.07550 | -2.09435 | 29501 ft | 417 kts | 192° |
| 2026-04-16 12:36 | 50.04729 | -2.09783 | 30711 ft | 397 kts | 192° |
| 2026-04-16 12:36 | 50.02076 | -2.10105 | 31823 ft | 376 kts | 193° |
| 2026-04-16 12:37 | 49.99517 | -2.10438 | 32630 ft | 363 kts | 196° |
| 2026-04-16 12:37 | 49.97071 | -2.11160 | 33039 ft | 353 kts | 204° |
| 2026-04-16 12:37 | 49.94727 | -2.12270 | 33249 ft | 353 kts | 205° |
| 2026-04-16 12:37 | 49.92381 | -2.13397 | 33520 ft | 354 kts | 205° |
| 2026-04-16 12:38 | 49.90028 | -2.14510 | 33789 ft | 354 kts | 205° |
| 2026-04-16 12:38 | 49.87669 | -2.15613 | 34066 ft | 354 kts | 205° |
| 2026-04-16 12:38 | 49.85304 | -2.16711 | 34325 ft | 354 kts | 205° |
| 2026-04-16 12:38 | 49.82943 | -2.17805 | 34565 ft | 354 kts | 205° |
| 2026-04-16 12:39 | 49.80600 | -2.18888 | 34958 ft | 347 kts | 204° |
| 2026-04-16 12:39 | 49.78294 | -2.19938 | 35223 ft | 347 kts | 204° |
| 2026-04-16 12:39 | 49.73588 | -2.22139 | 35222 ft | 360 kts | 205° |
| 2026-04-16 12:40 | 49.68713 | -2.24429 | 35220 ft | 372 kts | 204° |
| 2026-04-16 12:40 | 49.63665 | -2.26781 | 35224 ft | 386 kts | 203° |
| 2026-04-16 12:41 | 49.58423 | -2.29196 | 35222 ft | 400 kts | 203° |
| 2026-04-16 12:41 | 49.53004 | -2.31679 | 35222 ft | 412 kts | 203° |
| 2026-04-16 12:42 | 49.47479 | -2.34205 | 35218 ft | 416 kts | 202° |
| 2026-04-16 12:42 | 49.41926 | -2.36750 | 35220 ft | 416 kts | 202° |
| 2026-04-16 12:43 | 49.36374 | -2.39288 | 35229 ft | 417 kts | 202° |
| 2026-04-16 12:43 | 49.30818 | -2.41820 | 35223 ft | 417 kts | 202° |
| 2026-04-16 12:44 | 49.25253 | -2.44352 | 35219 ft | 417 kts | 202° |
| 2026-04-16 12:44 | 49.19878 | -2.46789 | 35222 ft | 418 kts | 202° |
| 2026-04-16 12:45 | 49.14302 | -2.49319 | 35228 ft | 418 kts | 202° |
| 2026-04-16 12:45 | 49.08727 | -2.51848 | 35229 ft | 418 kts | 202° |
| 2026-04-16 12:46 | 49.03153 | -2.54364 | 35210 ft | 418 kts | 202° |
| 2026-04-16 12:46 | 48.97656 | -2.56836 | 35218 ft | 418 kts | 202° |
| 2026-04-16 12:47 | 48.92158 | -2.59299 | 35228 ft | 418 kts | 202° |
| 2026-04-16 12:47 | 48.86570 | -2.61795 | 35231 ft | 418 kts | 202° |
| 2026-04-16 12:48 | 48.80985 | -2.64291 | 35240 ft | 418 kts | 201° |
| 2026-04-16 12:48 | 48.75412 | -2.66773 | 35241 ft | 417 kts | 201° |
| 2026-04-16 12:49 | 48.69847 | -2.69240 | 35241 ft | 416 kts | 201° |
| 2026-04-16 12:49 | 48.64291 | -2.71706 | 35238 ft | 416 kts | 201° |
| 2026-04-16 12:50 | 48.58735 | -2.74174 | 35227 ft | 416 kts | 201° |
| 2026-04-16 12:50 | 48.53181 | -2.76627 | 35227 ft | 416 kts | 201° |
| 2026-04-16 12:51 | 48.47631 | -2.79070 | 35221 ft | 416 kts | 201° |
| 2026-04-16 12:51 | 48.42096 | -2.81505 | 35230 ft | 416 kts | 201° |
| 2026-04-16 12:52 | 48.36541 | -2.83950 | 35213 ft | 416 kts | 201° |
| 2026-04-16 12:52 | 48.30980 | -2.86392 | 35216 ft | 416 kts | 201° |
| 2026-04-16 12:53 | 48.25416 | -2.88827 | 35229 ft | 417 kts | 201° |
| 2026-04-16 12:53 | 48.19851 | -2.91245 | 35233 ft | 417 kts | 201° |
| 2026-04-16 12:54 | 48.14283 | -2.93656 | 35225 ft | 417 kts | 201° |
| 2026-04-16 12:54 | 48.08710 | -2.96076 | 35241 ft | 417 kts | 201° |
| 2026-04-16 12:55 | 48.03142 | -2.98487 | 35267 ft | 416 kts | 201° |
| 2026-04-16 12:55 | 47.97583 | -3.00883 | 35264 ft | 415 kts | 201° |
| 2026-04-16 12:56 | 47.92070 | -3.03265 | 35261 ft | 415 kts | 201° |
| 2026-04-16 12:56 | 47.86525 | -3.05648 | 35264 ft | 415 kts | 201° |
| 2026-04-16 12:57 | 47.80977 | -3.08016 | 35262 ft | 415 kts | 200° |
| 2026-04-16 12:57 | 47.75432 | -3.10386 | 35241 ft | 415 kts | 200° |
| 2026-04-16 12:58 | 47.69925 | -3.12743 | 35247 ft | 415 kts | 200° |
| 2026-04-16 12:58 | 47.64379 | -3.15106 | 35254 ft | 415 kts | 200° |
| 2026-04-16 12:59 | 47.58828 | -3.17469 | 35260 ft | 415 kts | 200° |
| 2026-04-16 13:00 | 47.50503 | -3.20999 | 35257 ft | 415 kts | 200° |
| 2026-04-16 13:00 | 47.44983 | -3.23332 | 35269 ft | 416 kts | 200° |
| 2026-04-16 13:01 | 47.39419 | -3.25679 | 35276 ft | 415 kts | 200° |
| 2026-04-16 13:01 | 47.33862 | -3.28015 | 35252 ft | 415 kts | 200° |
| 2026-04-16 13:02 | 47.28301 | -3.30351 | 35253 ft | 416 kts | 200° |
| 2026-04-16 13:02 | 47.22769 | -3.32665 | 35269 ft | 416 kts | 200° |
| 2026-04-16 13:03 | 47.17204 | -3.34983 | 35277 ft | 416 kts | 200° |
| 2026-04-16 13:03 | 47.11642 | -3.37306 | 35265 ft | 415 kts | 200° |
| 2026-04-16 13:04 | 47.06083 | -3.39627 | 35268 ft | 415 kts | 200° |
| 2026-04-16 13:04 | 47.00519 | -3.41945 | 35270 ft | 416 kts | 200° |
| 2026-04-16 13:05 | 46.94992 | -3.44246 | 35271 ft | 416 kts | 200° |
| 2026-04-16 13:05 | 46.89422 | -3.46544 | 35250 ft | 416 kts | 200° |
| 2026-04-16 13:06 | 46.83848 | -3.48837 | 35256 ft | 416 kts | 200° |
| 2026-04-16 13:06 | 46.78275 | -3.51136 | 35261 ft | 416 kts | 200° |
| 2026-04-16 13:07 | 46.72733 | -3.53419 | 35268 ft | 416 kts | 200° |
| 2026-04-16 13:07 | 46.67153 | -3.55704 | 35270 ft | 417 kts | 200° |
| 2026-04-16 13:08 | 46.61575 | -3.57986 | 35269 ft | 417 kts | 200° |
| 2026-04-16 13:08 | 46.55995 | -3.60266 | 35272 ft | 417 kts | 200° |
| 2026-04-16 13:09 | 46.50413 | -3.62536 | 35256 ft | 417 kts | 199° |
| 2026-04-16 13:09 | 46.44871 | -3.64788 | 35278 ft | 416 kts | 200° |
| 2026-04-16 13:10 | 46.39289 | -3.67048 | 35278 ft | 416 kts | 200° |
| 2026-04-16 13:10 | 46.33716 | -3.69303 | 35275 ft | 416 kts | 199° |
| 2026-04-16 13:11 | 46.27950 | -3.70572 | 35250 ft | 421 kts | 191° |
| 2026-04-16 13:11 | 46.22155 | -3.71437 | 35254 ft | 422 kts | 191° |
| 2026-04-16 13:12 | 46.16317 | -3.72302 | 35258 ft | 422 kts | 190° |
| 2026-04-16 13:12 | 46.10477 | -3.73171 | 35248 ft | 422 kts | 191° |
| 2026-04-16 13:13 | 46.04630 | -3.74038 | 35255 ft | 422 kts | 190° |
| 2026-04-16 13:13 | 45.98822 | -3.74890 | 35266 ft | 423 kts | 190° |
| 2026-04-16 13:14 | 45.92973 | -3.75761 | 35255 ft | 423 kts | 191° |
| 2026-04-16 13:14 | 45.87121 | -3.76629 | 35241 ft | 423 kts | 190° |
| 2026-04-16 13:15 | 45.81261 | -3.77489 | 35242 ft | 423 kts | 190° |
| 2026-04-16 13:15 | 45.75440 | -3.78344 | 35252 ft | 424 kts | 190° |
| 2026-04-16 13:16 | 45.69574 | -3.79206 | 35230 ft | 424 kts | 190° |
| 2026-04-16 13:16 | 45.63701 | -3.80066 | 35237 ft | 424 kts | 190° |
| 2026-04-16 13:17 | 45.57825 | -3.80927 | 35243 ft | 425 kts | 190° |
| 2026-04-16 13:17 | 45.51979 | -3.81774 | 35248 ft | 425 kts | 190° |
| 2026-04-16 13:18 | 45.46085 | -3.82631 | 35241 ft | 426 kts | 190° |
| 2026-04-16 13:18 | 45.40186 | -3.83489 | 35244 ft | 426 kts | 190° |
| 2026-04-16 13:19 | 45.34279 | -3.84346 | 35249 ft | 427 kts | 190° |
| 2026-04-16 13:19 | 45.28368 | -3.85203 | 35232 ft | 427 kts | 190° |
| 2026-04-16 13:20 | 45.22484 | -3.86044 | 35238 ft | 428 kts | 191° |
| 2026-04-16 13:20 | 45.16540 | -3.86898 | 35235 ft | 430 kts | 191° |
| 2026-04-16 13:21 | 45.10581 | -3.87758 | 35221 ft | 431 kts | 191° |
| 2026-04-16 13:21 | 45.04602 | -3.88626 | 35234 ft | 432 kts | 191° |
| 2026-04-16 13:22 | 44.98646 | -3.89477 | 35237 ft | 433 kts | 191° |
| 2026-04-16 13:22 | 44.92643 | -3.90322 | 35219 ft | 434 kts | 191° |
| 2026-04-16 13:23 | 44.86627 | -3.91181 | 35227 ft | 435 kts | 191° |
| 2026-04-16 13:23 | 44.80602 | -3.92046 | 35235 ft | 436 kts | 191° |
| 2026-04-16 13:24 | 44.74558 | -3.92900 | 35234 ft | 436 kts | 191° |
| 2026-04-16 13:24 | 44.68552 | -3.93740 | 35238 ft | 437 kts | 191° |
| 2026-04-16 13:25 | 44.62507 | -3.94584 | 35243 ft | 437 kts | 191° |
| 2026-04-16 13:25 | 44.56455 | -3.95442 | 35246 ft | 437 kts | 191° |
| 2026-04-16 13:26 | 44.50398 | -3.96304 | 35229 ft | 438 kts | 191° |
| 2026-04-16 13:26 | 44.44376 | -3.97152 | 35228 ft | 438 kts | 191° |
| 2026-04-16 13:27 | 44.38300 | -3.98005 | 35227 ft | 439 kts | 191° |
| 2026-04-16 13:27 | 44.32217 | -3.98845 | 35221 ft | 440 kts | 190° |
| 2026-04-16 13:28 | 44.26112 | -3.99587 | 35221 ft | 441 kts | 189° |
| 2026-04-16 13:28 | 44.19989 | -4.00248 | 35223 ft | 442 kts | 189° |
| 2026-04-16 13:29 | 44.13904 | -4.00912 | 35203 ft | 442 kts | 189° |
| 2026-04-16 13:29 | 44.07773 | -4.01607 | 35207 ft | 442 kts | 189° |
| 2026-04-16 13:30 | 44.01635 | -4.02308 | 35214 ft | 443 kts | 189° |
| 2026-04-16 13:30 | 43.95486 | -4.03014 | 35196 ft | 444 kts | 190° |
| 2026-04-16 13:31 | 43.89370 | -4.03721 | 35195 ft | 445 kts | 189° |
| 2026-04-16 13:31 | 43.83198 | -4.04425 | 35207 ft | 445 kts | 189° |
| 2026-04-16 13:32 | 43.77023 | -4.05117 | 35209 ft | 446 kts | 189° |
| 2026-04-16 13:32 | 43.70830 | -4.05811 | 35206 ft | 447 kts | 189° |
| 2026-04-16 13:33 | 43.64670 | -4.06505 | 35211 ft | 447 kts | 189° |
| 2026-04-16 13:33 | 43.58460 | -4.07207 | 35214 ft | 448 kts | 189° |
| 2026-04-16 13:34 | 43.52248 | -4.07899 | 35198 ft | 448 kts | 189° |
| 2026-04-16 13:34 | 43.46032 | -4.08585 | 35203 ft | 449 kts | 189° |
| 2026-04-16 13:35 | 43.39843 | -4.09276 | 35208 ft | 449 kts | 189° |
| 2026-04-16 13:35 | 43.33605 | -4.09973 | 35198 ft | 450 kts | 189° |
| 2026-04-16 13:36 | 43.27355 | -4.10662 | 35202 ft | 451 kts | 189° |
| 2026-04-16 13:36 | 43.22160 | -4.11241 | 35208 ft | 451 kts | 189° |
| 2026-04-16 13:37 | 43.14884 | -4.12048 | 35194 ft | 451 kts | 189° |
| 2026-04-16 13:37 | 43.09636 | -4.12632 | 35193 ft | 452 kts | 189° |
| 2026-04-16 13:38 | 43.03407 | -4.13320 | 35190 ft | 452 kts | 189° |
| 2026-04-16 13:38 | 42.97127 | -4.14006 | 35192 ft | 453 kts | 189° |
| 2026-04-16 13:39 | 42.90838 | -4.14690 | 35190 ft | 453 kts | 189° |
| 2026-04-16 13:39 | 42.84543 | -4.15382 | 35193 ft | 454 kts | 189° |
| 2026-04-16 13:40 | 42.78292 | -4.16073 | 35193 ft | 454 kts | 189° |
| 2026-04-16 13:40 | 42.71994 | -4.16754 | 35197 ft | 454 kts | 189° |
| 2026-04-16 13:41 | 42.64672 | -4.17547 | 35202 ft | 454 kts | 189° |
| 2026-04-16 13:41 | 42.59394 | -4.18123 | 35206 ft | 454 kts | 189° |
| 2026-04-16 13:42 | 42.53136 | -4.18805 | 35196 ft | 454 kts | 189° |
| 2026-04-16 13:42 | 42.46833 | -4.19487 | 35196 ft | 455 kts | 189° |
| 2026-04-16 13:43 | 42.40523 | -4.20166 | 35204 ft | 455 kts | 189° |
| 2026-04-16 13:43 | 42.34213 | -4.20847 | 35211 ft | 455 kts | 189° |
| 2026-04-16 13:44 | 42.27899 | -4.21522 | 35204 ft | 455 kts | 189° |
| 2026-04-16 13:44 | 42.21622 | -4.22201 | 35206 ft | 456 kts | 189° |
| 2026-04-16 13:45 | 42.15295 | -4.22877 | 35207 ft | 456 kts | 188° |
| 2026-04-16 13:45 | 42.08965 | -4.23552 | 35203 ft | 456 kts | 188° |
| 2026-04-16 13:46 | 42.02631 | -4.24230 | 35204 ft | 457 kts | 188° |
| 2026-04-16 13:46 | 41.96333 | -4.24901 | 35206 ft | 457 kts | 188° |
| 2026-04-16 13:47 | 41.89992 | -4.25574 | 35196 ft | 458 kts | 188° |
| 2026-04-16 13:47 | 41.83637 | -4.26248 | 35198 ft | 458 kts | 188° |
| 2026-04-16 13:48 | 41.77278 | -4.26922 | 35199 ft | 459 kts | 188° |
| 2026-04-16 13:48 | 41.70916 | -4.27591 | 35207 ft | 459 kts | 188° |
| 2026-04-16 13:49 | 41.64588 | -4.28253 | 35202 ft | 459 kts | 188° |
| 2026-04-16 13:49 | 41.58219 | -4.28921 | 35202 ft | 460 kts | 188° |
| 2026-04-16 13:50 | 41.51835 | -4.29592 | 35205 ft | 460 kts | 188° |
| 2026-04-16 13:50 | 41.45449 | -4.30268 | 35199 ft | 460 kts | 188° |
| 2026-04-16 13:51 | 41.39103 | -4.30936 | 35202 ft | 461 kts | 188° |
| 2026-04-16 13:51 | 41.32707 | -4.31605 | 35205 ft | 461 kts | 188° |
| 2026-04-16 13:52 | 41.26308 | -4.32271 | 35202 ft | 461 kts | 188° |
| 2026-04-16 13:52 | 41.19907 | -4.32930 | 35207 ft | 462 kts | 188° |
| 2026-04-16 13:53 | 41.13504 | -4.33591 | 35213 ft | 462 kts | 188° |
| 2026-04-16 13:53 | 41.07136 | -4.34255 | 35215 ft | 462 kts | 188° |
| 2026-04-16 13:54 | 41.00731 | -4.34919 | 35212 ft | 462 kts | 188° |
| 2026-04-16 13:54 | 40.94325 | -4.35580 | 35219 ft | 462 kts | 188° |
| 2026-04-16 13:55 | 40.87920 | -4.36242 | 35218 ft | 462 kts | 188° |
| 2026-04-16 13:55 | 40.81557 | -4.36897 | 35204 ft | 462 kts | 187° |
| 2026-04-16 13:56 | 40.75155 | -4.37550 | 35230 ft | 462 kts | 188° |
| 2026-04-16 13:56 | 40.68754 | -4.38208 | 35227 ft | 461 kts | 188° |
| 2026-04-16 13:57 | 40.62351 | -4.38866 | 35210 ft | 461 kts | 188° |
| 2026-04-16 13:57 | 40.55949 | -4.39510 | 35214 ft | 461 kts | 187° |
| 2026-04-16 13:58 | 40.46387 | -4.40486 | 35211 ft | 461 kts | 188° |
| 2026-04-16 13:58 | 40.39985 | -4.41138 | 35214 ft | 461 kts | 188° |
| 2026-04-16 13:59 | 40.33586 | -4.41786 | 35201 ft | 461 kts | 187° |
| 2026-04-16 13:59 | 40.27239 | -4.42422 | 35207 ft | 461 kts | 187° |
| 2026-04-16 14:00 | 40.20843 | -4.43065 | 35196 ft | 460 kts | 188° |
| 2026-04-16 14:00 | 40.14455 | -4.43712 | 35197 ft | 460 kts | 188° |
| 2026-04-16 14:01 | 40.08066 | -4.44361 | 35190 ft | 460 kts | 187° |
| 2026-04-16 14:01 | 40.01680 | -4.44998 | 35200 ft | 460 kts | 187° |
| 2026-04-16 14:02 | 39.95335 | -4.45624 | 35199 ft | 460 kts | 187° |
| 2026-04-16 14:02 | 39.88953 | -4.46262 | 35187 ft | 460 kts | 187° |
| 2026-04-16 14:03 | 39.82568 | -4.46902 | 35195 ft | 460 kts | 187° |
| 2026-04-16 14:03 | 39.76189 | -4.47537 | 35193 ft | 460 kts | 187° |
| 2026-04-16 14:04 | 39.69855 | -4.48162 | 35189 ft | 460 kts | 187° |
| 2026-04-16 14:04 | 39.63478 | -4.48802 | 35191 ft | 460 kts | 187° |
| 2026-04-16 14:05 | 39.57099 | -4.49438 | 35203 ft | 460 kts | 187° |
| 2026-04-16 14:05 | 39.50716 | -4.50064 | 35195 ft | 460 kts | 187° |
| 2026-04-16 14:06 | 39.44385 | -4.50690 | 35187 ft | 460 kts | 187° |
| 2026-04-16 14:06 | 39.38008 | -4.51322 | 35192 ft | 460 kts | 187° |
| 2026-04-16 14:07 | 39.31631 | -4.51951 | 35195 ft | 460 kts | 187° |
| 2026-04-16 14:07 | 39.25257 | -4.52573 | 35193 ft | 460 kts | 187° |
| 2026-04-16 14:08 | 39.18918 | -4.53188 | 35198 ft | 459 kts | 187° |
| 2026-04-16 14:08 | 39.12543 | -4.53807 | 35198 ft | 460 kts | 187° |
| 2026-04-16 14:09 | 39.06170 | -4.54448 | 35198 ft | 459 kts | 187° |
| 2026-04-16 14:09 | 38.99795 | -4.55080 | 35191 ft | 459 kts | 187° |
| 2026-04-16 14:10 | 38.93429 | -4.55709 | 35191 ft | 459 kts | 188° |
| 2026-04-16 14:10 | 38.87164 | -4.56796 | 35193 ft | 456 kts | 193° |
| 2026-04-16 14:11 | 38.80919 | -4.58245 | 35188 ft | 455 kts | 193° |
| 2026-04-16 14:11 | 38.74686 | -4.59662 | 35188 ft | 455 kts | 192° |
| 2026-04-16 14:12 | 38.68483 | -4.60961 | 35190 ft | 455 kts | 192° |
| 2026-04-16 14:12 | 38.65366 | -4.61593 | 35041 ft | 453 kts | 192° |
| 2026-04-16 14:12 | 38.62250 | -4.62221 | 34483 ft | 453 kts | 192° |
| 2026-04-16 14:13 | 38.59130 | -4.62854 | 33989 ft | 455 kts | 192° |
| 2026-04-16 14:13 | 38.55997 | -4.63499 | 33444 ft | 457 kts | 192° |
| 2026-04-16 14:13 | 38.52862 | -4.64150 | 32915 ft | 458 kts | 192° |
| 2026-04-16 14:13 | 38.49705 | -4.64807 | 32399 ft | 459 kts | 192° |
| 2026-04-16 14:14 | 38.46542 | -4.65464 | 31890 ft | 460 kts | 191° |
| 2026-04-16 14:14 | 38.43388 | -4.66114 | 31389 ft | 458 kts | 191° |
| 2026-04-16 14:14 | 38.40255 | -4.66754 | 30902 ft | 456 kts | 191° |
| 2026-04-16 14:14 | 38.37169 | -4.67387 | 30426 ft | 453 kts | 191° |
| 2026-04-16 14:15 | 38.34068 | -4.68026 | 29900 ft | 450 kts | 191° |
| 2026-04-16 14:15 | 38.30987 | -4.68662 | 29345 ft | 446 kts | 191° |
| 2026-04-16 14:15 | 38.27937 | -4.69287 | 28797 ft | 442 kts | 191° |
| 2026-04-16 14:15 | 38.24913 | -4.69907 | 28266 ft | 438 kts | 191° |
| 2026-04-16 14:16 | 38.21902 | -4.70526 | 27747 ft | 443 kts | 191° |
| 2026-04-16 14:16 | 38.18832 | -4.71159 | 27227 ft | 449 kts | 191° |
| 2026-04-16 14:16 | 38.15751 | -4.71789 | 26709 ft | 447 kts | 191° |
| 2026-04-16 14:16 | 38.12727 | -4.72405 | 26196 ft | 444 kts | 191° |
| 2026-04-16 14:17 | 38.09679 | -4.72925 | 25682 ft | 441 kts | 187° |
| 2026-04-16 14:17 | 38.06633 | -4.73244 | 25178 ft | 437 kts | 186° |
| 2026-04-16 14:17 | 38.03612 | -4.73501 | 24687 ft | 434 kts | 185° |
| 2026-04-16 14:17 | 38.00609 | -4.73721 | 24202 ft | 430 kts | 184° |
| 2026-04-16 14:18 | 37.97640 | -4.73928 | 23714 ft | 426 kts | 184° |
| 2026-04-16 14:18 | 37.94688 | -4.74140 | 23134 ft | 423 kts | 184° |
| 2026-04-16 14:18 | 37.91769 | -4.74364 | 22573 ft | 419 kts | 185° |
| 2026-04-16 14:18 | 37.88875 | -4.74596 | 22024 ft | 415 kts | 185° |
| 2026-04-16 14:19 | 37.86044 | -4.74829 | 21489 ft | 411 kts | 185° |
| 2026-04-16 14:19 | 37.83199 | -4.75069 | 20960 ft | 409 kts | 185° |
| 2026-04-16 14:19 | 37.80370 | -4.75310 | 20436 ft | 406 kts | 185° |
| 2026-04-16 14:19 | 37.77561 | -4.75546 | 19931 ft | 403 kts | 184° |
| 2026-04-16 14:20 | 37.74771 | -4.75781 | 19426 ft | 400 kts | 185° |
| 2026-04-16 14:20 | 37.72005 | -4.76011 | 18937 ft | 397 kts | 185° |
| 2026-04-16 14:20 | 37.69260 | -4.76236 | 18537 ft | 393 kts | 184° |
| 2026-04-16 14:20 | 37.66556 | -4.76454 | 18090 ft | 387 kts | 184° |
| 2026-04-16 14:21 | 37.63926 | -4.76666 | 17649 ft | 381 kts | 184° |
| 2026-04-16 14:21 | 37.61304 | -4.76880 | 17220 ft | 374 kts | 184° |
| 2026-04-16 14:21 | 37.58722 | -4.77090 | 16768 ft | 369 kts | 184° |
| 2026-04-16 14:21 | 37.56170 | -4.77297 | 16313 ft | 365 kts | 184° |
| 2026-04-16 14:22 | 37.53653 | -4.77503 | 15871 ft | 361 kts | 184° |
| 2026-04-16 14:22 | 37.51160 | -4.77708 | 15432 ft | 357 kts | 184° |
| 2026-04-16 14:22 | 37.48693 | -4.77909 | 15000 ft | 354 kts | 184° |
| 2026-04-16 14:22 | 37.46247 | -4.78107 | 14573 ft | 351 kts | 184° |
| 2026-04-16 14:23 | 37.43821 | -4.78302 | 14151 ft | 348 kts | 184° |
| 2026-04-16 14:23 | 37.41441 | -4.78492 | 13714 ft | 346 kts | 184° |
| 2026-04-16 14:23 | 37.39036 | -4.78681 | 13241 ft | 345 kts | 184° |
| 2026-04-16 14:23 | 37.36651 | -4.78871 | 12784 ft | 343 kts | 184° |
| 2026-04-16 14:24 | 37.34294 | -4.79061 | 12337 ft | 341 kts | 184° |
| 2026-04-16 14:24 | 37.31919 | -4.79256 | 11890 ft | 339 kts | 184° |
| 2026-04-16 14:24 | 37.29573 | -4.79448 | 11449 ft | 337 kts | 184° |
| 2026-04-16 14:24 | 37.27241 | -4.79640 | 11015 ft | 335 kts | 184° |
| 2026-04-16 14:25 | 37.24919 | -4.79830 | 10587 ft | 334 kts | 184° |
| 2026-04-16 14:25 | 37.22655 | -4.80014 | 10340 ft | 328 kts | 184° |
| 2026-04-16 14:25 | 37.20361 | -4.80197 | 10106 ft | 331 kts | 184° |
| 2026-04-16 14:25 | 37.18059 | -4.80309 | 9855 ft | 330 kts | 181° |
| 2026-04-16 14:26 | 37.15765 | -4.80310 | 9596 ft | 329 kts | 179° |
| 2026-04-16 14:26 | 37.13487 | -4.80259 | 9337 ft | 326 kts | 179° |
| 2026-04-16 14:26 | 37.11219 | -4.80201 | 9078 ft | 325 kts | 179° |
| 2026-04-16 14:26 | 37.08961 | -4.80146 | 8825 ft | 323 kts | 179° |
| 2026-04-16 14:27 | 37.06721 | -4.80055 | 8573 ft | 322 kts | 173° |
| 2026-04-16 14:27 | 37.04546 | -4.79451 | 8299 ft | 319 kts | 166° |
| 2026-04-16 14:27 | 37.02405 | -4.78759 | 8036 ft | 315 kts | 165° |
| 2026-04-16 14:27 | 37.00333 | -4.78082 | 7774 ft | 309 kts | 165° |
| 2026-04-16 14:28 | 36.98273 | -4.77405 | 7500 ft | 303 kts | 165° |
| 2026-04-16 14:28 | 36.96250 | -4.76738 | 7183 ft | 300 kts | 165° |
| 2026-04-16 14:28 | 36.94223 | -4.76068 | 6710 ft | 303 kts | 165° |
| 2026-04-16 14:28 | 36.92167 | -4.75390 | 6217 ft | 307 kts | 166° |
| 2026-04-16 14:29 | 36.90094 | -4.74701 | 5714 ft | 310 kts | 165° |
| 2026-04-16 14:29 | 36.88007 | -4.74021 | 5216 ft | 310 kts | 165° |
| 2026-04-16 14:29 | 36.85917 | -4.73353 | 4715 ft | 310 kts | 165° |
| 2026-04-16 14:29 | 36.83857 | -4.72708 | 4212 ft | 299 kts | 166° |
| 2026-04-16 14:30 | 36.81908 | -4.72072 | 3729 ft | 287 kts | 165° |
| 2026-04-16 14:30 | 36.80003 | -4.71466 | 3243 ft | 280 kts | 165° |
| 2026-04-16 14:30 | 36.78161 | -4.70902 | 2998 ft | 261 kts | 165° |
| 2026-04-16 14:30 | 36.76520 | -4.70218 | 2985 ft | 238 kts | 146° |
| 2026-04-16 14:31 | 36.75542 | -4.68665 | 2975 ft | 229 kts | 108° |
| 2026-04-16 14:31 | 36.75458 | -4.66694 | 2774 ft | 229 kts | 88° |
| 2026-04-16 14:31 | 36.75224 | -4.64773 | 2501 ft | 224 kts | 118° |
| 2026-04-16 14:31 | 36.74346 | -4.63188 | 2242 ft | 222 kts | 121° |
| 2026-04-16 14:32 | 36.73596 | -4.61517 | 1965 ft | 217 kts | 118° |
| 2026-04-16 14:32 | 36.72928 | -4.59904 | 1684 ft | 207 kts | 117° |
| 2026-04-16 14:32 | 36.72274 | -4.58333 | 1421 ft | 198 kts | 118° |
| 2026-04-16 14:32 | 36.71654 | -4.56854 | 1153 ft | 188 kts | 117° |
| 2026-04-16 14:33 | 36.71071 | -4.55464 | 928 ft | 176 kts | 117° |
| 2026-04-16 14:33 | 36.70519 | -4.54150 | 684 ft | 167 kts | 117° |
| 2026-04-16 14:33 | 36.69998 | -4.52910 | 497 ft | 158 kts | 118° |
| 2026-04-16 14:33 | 36.69447 | -4.51634 | 1096 ft | 170 kts | 118° |
| 2026-04-16 14:34 | 36.68850 | -4.50268 | 1852 ft | 191 kts | 118° |
| 2026-04-16 14:34 | 36.68183 | -4.48741 | 2299 ft | 209 kts | 118° |
| 2026-04-16 14:34 | 36.67484 | -4.47139 | 2845 ft | 217 kts | 117° |
| 2026-04-16 14:34 | 36.67082 | -4.45351 | 2980 ft | 216 kts | 88° |
| 2026-04-16 14:35 | 36.67547 | -4.43587 | 3001 ft | 219 kts | 53° |
| 2026-04-16 14:35 | 36.68753 | -4.42444 | 3007 ft | 223 kts | 20° |
| 2026-04-16 14:35 | 36.70287 | -4.42305 | 3049 ft | 224 kts | 346° |
| 2026-04-16 14:35 | 36.71728 | -4.43130 | 3309 ft | 240 kts | 327° |
| 2026-04-16 14:36 | 36.73145 | -4.44325 | 3553 ft | 250 kts | 324° |
| 2026-04-16 14:36 | 36.74508 | -4.45686 | 3798 ft | 252 kts | 309° |
| 2026-04-16 14:36 | 36.75511 | -4.47451 | 3954 ft | 254 kts | 302° |
| 2026-04-16 14:36 | 36.76440 | -4.49327 | 4004 ft | 254 kts | 300° |
| 2026-04-16 14:37 | 36.77358 | -4.51203 | 4008 ft | 254 kts | 300° |
| 2026-04-16 14:37 | 36.78276 | -4.53084 | 4007 ft | 254 kts | 301° |
| 2026-04-16 14:37 | 36.79188 | -4.54971 | 4008 ft | 253 kts | 300° |
| 2026-04-16 14:37 | 36.80101 | -4.56848 | 4007 ft | 254 kts | 301° |
| 2026-04-16 14:38 | 36.81018 | -4.58736 | 3991 ft | 255 kts | 300° |
| 2026-04-16 14:38 | 36.81888 | -4.60645 | 3782 ft | 249 kts | 295° |
| 2026-04-16 14:38 | 36.82365 | -4.62621 | 3654 ft | 235 kts | 267° |
| 2026-04-16 14:38 | 36.82114 | -4.64579 | 3532 ft | 225 kts | 248° |
| 2026-04-16 14:39 | 36.81523 | -4.66336 | 3417 ft | 217 kts | 240° |
| 2026-04-16 14:39 | 36.80868 | -4.68019 | 3253 ft | 214 kts | 239° |
| 2026-04-16 14:39 | 36.80163 | -4.69634 | 3026 ft | 210 kts | 227° |
| 2026-04-16 14:39 | 36.79006 | -4.70638 | 2984 ft | 198 kts | 187° |
| 2026-04-16 14:40 | 36.77766 | -4.70317 | 2985 ft | 181 kts | 140° |
| 2026-04-16 14:40 | 36.76953 | -4.69155 | 3012 ft | 177 kts | 126° |
| 2026-04-16 14:40 | 36.76291 | -4.67822 | 2963 ft | 183 kts | 121° |
| 2026-04-16 14:40 | 36.75697 | -4.66476 | 2774 ft | 180 kts | 120° |
| 2026-04-16 14:41 | 36.75115 | -4.65107 | 2563 ft | 173 kts | 117° |
| 2026-04-16 14:41 | 36.74564 | -4.63797 | 2355 ft | 167 kts | 117° |
| 2026-04-16 14:41 | 36.74038 | -4.62542 | 2140 ft | 160 kts | 118° |
| 2026-04-16 14:41 | 36.73536 | -4.61346 | 1948 ft | 149 kts | 118° |
| 2026-04-16 14:42 | 36.73070 | -4.60232 | 1735 ft | 143 kts | 119° |
| 2026-04-16 14:42 | 36.72610 | -4.59135 | 1560 ft | 141 kts | 118° |
| 2026-04-16 14:42 | 36.72157 | -4.58037 | 1407 ft | 143 kts | 119° |
| 2026-04-16 14:42 | 36.71698 | -4.56940 | 1182 ft | 146 kts | 119° |
| 2026-04-16 14:43 | 36.71220 | -4.55847 | 1008 ft | 142 kts | 116° |
| 2026-04-16 14:43 | 36.70779 | -4.54756 | 837 ft | 143 kts | 116° |
| 2026-04-16 14:43 | 36.70318 | -4.53676 | 633 ft | 140 kts | 119° |
| 2026-04-16 14:43 | 36.69860 | -4.52599 | 435 ft | 141 kts | 117° |
| 2026-04-16 14:44 | 36.69414 | -4.51515 | 224 ft | 139 kts | 117° |
| 2026-04-16 14:44 | 36.68966 | -4.50454 | 53 ft | 135 kts | 118° |
| 2026-04-16 14:44 | 36.68583 | -4.49542 | 48 ft | 94 kts | 117° |
| 2026-04-16 14:44 | 36.68414 | -4.49140 | 46 ft | 27 kts | 119° |
| 2026-04-16 14:45 | 36.68301 | -4.48965 | 43 ft | 24 kts | 138° |
| 2026-04-16 14:45 | 36.68219 | -4.48885 | 41 ft | 14 kts | 150° |
| 2026-04-16 14:45 | 36.68155 | -4.48843 | 39 ft | 10 kts | 159° |
| 2026-04-16 14:45 | 36.68087 | -4.48842 | 40 ft | 9 kts | 198° |
| 2026-04-16 14:46 | 36.68025 | -4.48881 | 40 ft | 9 kts | 208° |
| 2026-04-16 14:46 | 36.67985 | -4.48936 | 42 ft | 9 kts | 272° |
| 2026-04-16 14:46 | 36.68016 | -4.49018 | 40 ft | 11 kts | 297° |
| 2026-04-16 14:46 | 36.68047 | -4.49091 | 41 ft | 8 kts | 297° |
| 2026-04-16 14:47 | 36.68073 | -4.49155 | 42 ft | 8 kts | 298° |
| 2026-04-16 14:47 | 36.68098 | -4.49212 | 42 ft | 7 kts | 297° |
| 2026-04-16 14:47 | 36.68087 | -4.49243 | 42 ft | 5 kts | 206° |
| 2026-04-16 14:47 | 36.68053 | -4.49266 | 39 ft | 3 kts | 207° |
| 2026-04-16 14:48 | 36.68045 | -4.49270 | 41 ft | 1 kts | 206° |
| 2026-04-16 14:48 | 36.68036 | -4.49276 | 42 ft | 1 kts | 207° |
| 2026-04-16 14:48 | 36.68033 | -4.49278 | 42 ft | 0 kts | 207° |